Time;durP1;ratioP1;P1;durP2;ratioP2;P2;SDS_P1;SDS_P2;PMS_P1;PMS_P2;Temp;Humidity;BMP_temperature;BMP_pressure;BME280_temperature;BME280_humidity;BME280_pressure;Samples;Min_cycle;Max_cycle;Signal;HPM_P1;HPM_P2
2022/08/31 00:04:28;;;;;;;0.50;0.50;;;;;;;15.94;59.88;101625.38;4920665;29;20035;-82
2022/08/31 00:06:54;;;;;;;0.30;0.30;;;;;;;15.91;60.16;101626.28;4905937;29;20068;-82
2022/08/31 00:09:24;;;;;;;0.45;0.30;;;;;;;15.88;59.96;101624.56;4919999;29;20052;-84
2022/08/31 00:11:51;;;;;;;0.30;0.30;;;;;;;15.86;60.17;101620.22;4916647;29;20059;-82
2022/08/31 00:14:20;;;;;;;0.75;0.20;;;;;;;15.83;60.27;101618.47;4918055;29;20067;-81
2022/08/31 00:16:47;;;;;;;1.00;0.30;;;;;;;15.83;60.39;101625.53;4917542;29;20987;-82
2022/08/31 00:19:17;;;;;;;0.63;0.40;;;;;;;15.80;60.78;101614.97;4922800;29;20048;-82
2022/08/31 00:21:44;;;;;;;1.60;0.63;;;;;;;15.81;60.80;101627.31;4915884;29;20054;-82
2022/08/31 00:24:12;;;;;;;0.75;0.40;;;;;;;15.79;60.71;101624.69;4929037;29;20071;-82
2022/08/31 00:26:39;;;;;;;0.32;0.30;;;;;;;15.75;60.92;101617.72;4923175;29;20048;-82
2022/08/31 00:29:07;;;;;;;2.97;0.60;;;;;;;15.77;60.91;101623.81;4938991;28;20227;-82
2022/08/31 00:31:35;;;;;;;0.30;0.30;;;;;;;15.77;61.09;101626.47;4922266;29;20553;-82
2022/08/31 00:34:03;;;;;;;2.92;0.73;;;;;;;15.73;61.32;101622.13;4908765;29;20155;-83
2022/08/31 00:36:31;;;;;;;2.28;0.47;;;;;;;15.68;61.45;101616.94;4912333;29;20059;-82
2022/08/31 00:38:58;;;;;;;0.60;0.50;;;;;;;15.66;61.98;101610.78;4928420;29;20060;-82
2022/08/31 00:41:33;;;;;;;3.53;0.52;;;;;;;15.65;61.62;101608.19;4928212;29;20531;-82
2022/08/31 00:44:03;;;;;;;0.75;0.50;;;;;;;15.64;61.83;101619.63;4924319;29;20048;-83
2022/08/31 00:46:42;;;;;;;3.03;0.40;;;;;;;15.63;61.80;101610.84;4926241;29;20798;-82
2022/08/31 00:49:20;;;;;;;1.85;0.40;;;;;;;15.61;62.16;101611.75;4923553;29;20126;-82
2022/08/31 00:52:28;;;;;;;0.30;0.30;;;;;;;15.59;62.32;101606.50;4906588;29;20051;-82
2022/08/31 00:55:01;;;;;;;1.10;0.60;;;;;;;15.59;62.23;101600.34;4933124;28;20055;-82
2022/08/31 00:57:38;;;;;;;0.57;0.30;;;;;;;15.60;62.29;101608.22;4909964;29;20075;-84
2022/08/31 01:00:13;;;;;;;0.95;0.52;;;;;;;15.58;62.52;101603.88;4932255;29;20386;-82
2022/08/31 01:02:41;;;;;;;1.27;0.30;;;;;;;15.57;62.69;101603.00;4944886;28;20083;-82
2022/08/31 01:05:13;;;;;;;1.85;0.32;;;;;;;15.53;62.74;101596.03;4909971;29;20056;-82
2022/08/31 01:07:43;;;;;;;4.03;0.75;;;;;;;15.49;63.28;101595.19;4924068;29;20043;-82
2022/08/31 01:10:13;;;;;;;0.52;0.40;;;;;;;15.44;63.07;101591.75;4920960;29;20071;-84
2022/08/31 01:12:44;;;;;;;0.20;0.20;;;;;;;15.43;63.30;101594.44;4923439;29;20052;-83
2022/08/31 01:15:15;;;;;;;0.40;0.30;;;;;;;15.37;63.44;101593.63;4922068;29;21086;-84
2022/08/31 01:17:48;;;;;;;0.60;0.20;;;;;;;15.33;63.84;101607.75;4923986;29;20742;-82
2022/08/31 01:20:26;;;;;;;0.50;0.40;;;;;;;15.29;64.48;101613.06;4906140;29;20166;-84
2022/08/31 01:23:04;;;;;;;0.50;0.30;;;;;;;15.25;64.45;101608.72;4921883;29;20050;-83
2022/08/31 01:25:31;;;;;;;0.38;0.30;;;;;;;15.22;64.83;101604.38;4907876;29;20659;-84
2022/08/31 01:28:05;;;;;;;0.20;0.20;;;;;;;15.17;64.94;101607.06;4923241;29;20487;-83
2022/08/31 01:30:32;;;;;;;;;;;;;;;15.13;65.50;101602.72;4920448;29;20051;-82
2022/08/31 01:33:00;;;;;;;0.50;0.43;;;;;;;15.09;65.25;101614.19;4921735;29;20000;-82
2022/08/31 01:35:27;;;;;;;0.45;0.30;;;;;;;15.04;65.87;101613.38;4920844;29;20035;-83
2022/08/31 01:37:55;;;;;;;0.50;0.50;;;;;;;14.97;66.29;101607.31;4923002;29;20055;-83
2022/08/31 01:40:45;;;;;;;1.05;0.35;;;;;;;14.95;66.37;101616.13;4939357;28;20056;-82
2022/08/31 01:43:12;;;;;;;0.32;0.32;;;;;;;14.91;67.11;101619.69;4925462;29;20051;-83
2022/08/31 01:45:39;;;;;;;0.70;0.25;;;;;;;14.87;67.15;101616.22;4911672;29;21110;-83
2022/08/31 01:48:07;;;;;;;1.30;0.57;;;;;;;14.81;67.39;101613.63;4911957;29;20059;-82
2022/08/31 01:50:34;;;;;;;0.82;0.50;;;;;;;14.78;67.85;101611.91;4930319;29;20051;-82
2022/08/31 01:53:01;;;;;;;0.35;0.32;;;;;;;14.74;68.15;101612.84;4913754;29;20080;-84
2022/08/31 01:55:28;;;;;;;0.20;0.20;;;;;;;14.68;68.12;101612.94;4939340;28;20056;-82
2022/08/31 01:57:58;;;;;;;0.75;0.55;;;;;;;14.63;68.65;101615.56;4893976;29;20061;-82
2022/08/31 02:00:27;;;;;;;0.30;0.28;;;;;;;14.57;69.40;101615.63;4937342;28;20082;-82
2022/08/31 02:02:53;;;;;;;0.40;0.40;;;;;;;14.52;69.69;101613.06;4932607;28;20126;-82
2022/08/31 02:05:20;;;;;;;0.45;0.45;;;;;;;14.48;70.04;101606.03;4916251;29;20086;-84
2022/08/31 02:07:48;;;;;;;0.50;0.40;;;;;;;14.44;70.32;101620.13;4907025;29;20190;-83
2022/08/31 02:10:15;;;;;;;0.43;0.30;;;;;;;14.42;70.67;101615.75;4924375;29;20106;-82
2022/08/31 02:12:43;;;;;;;0.30;0.30;;;;;;;14.40;71.04;101615.78;4924485;29;20044;-82
2022/08/31 02:15:11;;;;;;;0.32;0.32;;;;;;;14.40;70.91;101618.41;4925081;29;20047;-84
2022/08/31 02:17:38;;;;;;;0.30;0.30;;;;;;;14.36;71.31;101624.63;4931562;29;20051;-82
2022/08/31 02:20:09;;;;;;;0.20;0.20;;;;;;;14.31;71.90;101622.00;4933609;29;20115;-82
2022/08/31 02:22:36;;;;;;;2.00;0.60;;;;;;;14.23;72.11;101618.56;4926767;29;20078;-81
2022/08/31 02:25:04;;;;;;;0.40;0.40;;;;;;;14.14;72.50;101621.28;4911186;29;20047;-84
2022/08/31 02:27:32;;;;;;;0.98;0.60;;;;;;;14.07;72.95;101623.97;4925094;29;20055;-82
2022/08/31 02:29:59;;;;;;;0.38;0.38;;;;;;;14.06;72.88;101618.72;4925068;29;20063;-83
2022/08/31 02:32:29;;;;;;;0.43;0.43;;;;;;;14.02;72.86;101623.13;4929254;29;20523;-82
2022/08/31 02:34:55;;;;;;;0.55;0.47;;;;;;;13.99;73.35;101617.03;4925527;29;20043;-82
2022/08/31 02:37:23;;;;;;;0.30;0.30;;;;;;;13.98;73.48;101621.41;4943922;28;20054;-82
2022/08/31 02:39:49;;;;;;;2.20;0.85;;;;;;;13.95;73.78;101621.44;4927122;29;20055;-84
2022/08/31 02:42:16;;;;;;;0.30;0.30;;;;;;;13.94;73.54;101622.31;4920471;29;20046;-83
2022/08/31 02:44:52;;;;;;;0.90;0.40;;;;;;;13.98;73.81;101623.19;4914651;29;20075;-81
2022/08/31 02:47:32;;;;;;;1.77;0.20;;;;;;;13.99;73.45;101624.94;4924103;29;20082;-83
2022/08/31 02:50:04;;;;;;;0.40;0.40;;;;;;;14.02;73.33;101631.03;4912411;29;20056;-82
2022/08/31 02:52:48;;;;;;;0.88;0.65;;;;;;;14.04;73.25;101631.91;4922461;29;20046;-83
2022/08/31 02:55:17;;;;;;;0.20;0.20;;;;;;;14.01;73.62;101636.31;4924173;29;20047;-82
2022/08/31 02:57:44;;;;;;;1.42;0.60;;;;;;;13.95;73.94;101624.06;4922261;29;20059;-82
2022/08/31 03:00:14;;;;;;;0.38;0.30;;;;;;;13.87;74.16;101624.13;4926516;29;20070;-82
2022/08/31 03:02:43;;;;;;;0.32;0.32;;;;;;;13.80;74.66;101621.53;4927763;29;20059;-82
2022/08/31 03:05:11;;;;;;;2.08;0.35;;;;;;;13.71;75.07;101619.84;4931278;29;20040;-82
2022/08/31 03:07:38;;;;;;;1.27;0.40;;;;;;;13.64;75.50;101616.38;4934340;29;20075;-83
2022/08/31 03:10:08;;;;;;;0.98;0.65;;;;;;;13.60;76.34;101619.03;4912252;29;20047;-82
2022/08/31 03:12:38;;;;;;;0.70;0.30;;;;;;;13.57;76.39;101610.28;4925561;29;20481;-82
2022/08/31 03:15:10;;;;;;;0.40;0.40;;;;;;;13.53;76.04;101616.47;4925703;29;20697;-82
2022/08/31 03:17:37;;;;;;;0.20;0.20;;;;;;;13.51;76.12;101612.09;4923836;29;20071;-82
2022/08/31 03:20:07;;;;;;;1.10;0.40;;;;;;;13.50;76.91;101605.06;4923155;29;20467;-82
2022/08/31 03:22:34;;;;;;;2.00;0.52;;;;;;;13.47;76.89;101602.47;4921827;29;20515;-81
2022/08/31 03:25:03;;;;;;;0.55;0.32;;;;;;;13.45;77.58;101601.59;4923684;29;20039;-81
2022/08/31 03:30:18;;;;;;;1.10;0.98;;;;;;;13.34;78.05;101593.75;4905707;29;20055;-82
2022/08/31 03:32:47;;;;;;;2.45;1.23;;;;;;;13.26;78.52;101596.41;4921889;29;20070;-82
2022/08/31 03:35:16;;;;;;;0.50;0.50;;;;;;;13.22;78.58;101597.31;4919287;29;20051;-80
2022/08/31 03:38:09;;;;;;;;;;;;;;;;;;;;;
2022/08/31 03:40:37;;;;;;;1.07;0.90;;;;;;;13.15;79.65;101599.06;4906613;29;20047;-82
2022/08/31 03:43:04;;;;;;;0.85;0.50;;;;;;;13.08;79.83;101592.09;4902888;29;20051;-83
2022/08/31 03:45:32;;;;;;;0.73;0.25;;;;;;;13.05;80.09;101605.28;4892349;29;20062;-82
2022/08/31 03:47:59;;;;;;;0.52;0.50;;;;;;;13.01;80.93;101614.00;4918893;29;20090;-82
2022/08/31 03:50:27;;;;;;;0.70;0.70;;;;;;;13.00;81.54;101607.91;4916939;29;20039;-82
2022/08/31 03:52:54;;;;;;;0.52;0.32;;;;;;;13.00;81.07;101607.03;4920411;29;20047;-82
2022/08/31 03:55:21;;;;;;;1.45;0.40;;;;;;;13.00;81.39;101607.03;4906143;29;20098;-82
2022/08/31 03:57:48;;;;;;;0.60;0.60;;;;;;;12.99;81.93;101610.53;4906065;29;20587;-82
2022/08/31 04:00:17;;;;;;;0.52;0.52;;;;;;;12.96;82.30;101607.91;4907571;29;20055;-82
2022/08/31 04:02:56;;;;;;;0.95;0.73;;;;;;;12.92;81.97;101599.19;4920595;29;20048;-82
2022/08/31 04:05:22;;;;;;;2.60;0.80;;;;;;;12.87;83.01;101601.81;4904110;29;20056;-82
2022/08/31 04:07:50;;;;;;;0.52;0.52;;;;;;;12.87;82.54;101604.44;4905442;29;20062;-83
2022/08/31 04:10:17;;;;;;;0.50;0.50;;;;;;;12.87;83.00;101607.06;4905359;29;20221;-83
2022/08/31 04:12:54;;;;;;;1.15;0.50;;;;;;;12.87;82.79;101616.72;4921620;29;20048;-83
2022/08/31 04:15:21;;;;;;;1.73;1.35;;;;;;;12.89;83.72;101628.97;4921829;29;20063;-82
2022/08/31 04:17:48;;;;;;;0.40;0.40;;;;;;;12.91;83.39;101627.19;4895749;29;20082;-81
2022/08/31 04:20:15;;;;;;;0.30;0.30;;;;;;;12.99;83.36;101623.69;4924041;23;20143;-82
2022/08/31 04:22:43;;;;;;;0.88;0.40;;;;;;;13.07;83.07;101632.41;4920713;29;20048;-82
2022/08/31 04:25:10;;;;;;;0.93;0.70;;;;;;;13.15;82.48;101633.25;4890755;29;20047;-82
2022/08/31 04:27:38;;;;;;;1.38;0.50;;;;;;;13.27;81.66;101639.34;4909694;29;20052;-81
2022/08/31 04:30:07;;;;;;;0.45;0.32;;;;;;;13.37;81.01;101631.41;4924095;29;20064;-80
2022/08/31 04:32:36;;;;;;;2.08;0.70;;;;;;;13.45;81.13;101633.16;4906555;29;20136;-81
2022/08/31 04:35:07;;;;;;;0.65;0.35;;;;;;;13.50;80.62;101640.13;4910414;29;20044;-82
2022/08/31 04:37:36;;;;;;;0.50;0.30;;;;;;;13.58;80.15;101640.09;4923207;29;20044;-82
2022/08/31 04:40:04;;;;;;;0.70;0.68;;;;;;;13.63;80.15;101637.44;4906452;29;20052;-84
2022/08/31 04:42:35;;;;;;;2.55;0.70;;;;;;;13.66;79.54;101643.56;4873210;29;20201;-83
2022/08/31 04:45:05;;;;;;;3.85;0.47;;;;;;;13.68;79.88;101647.03;4918389;29;20126;-83
2022/08/31 04:47:33;;;;;;;5.22;0.57;;;;;;;13.66;79.79;101647.94;4906000;29;20067;-83
2022/08/31 04:50:00;;;;;;;0.80;0.35;;;;;;;13.72;79.41;101651.41;4920724;29;20059;-83
2022/08/31 04:52:32;;;;;;;0.98;0.70;;;;;;;13.77;79.51;101646.13;4920048;29;20071;-82
2022/08/31 04:54:59;;;;;;;0.82;0.50;;;;;;;13.80;79.03;101654.00;4908258;29;20076;-82
2022/08/31 04:57:26;;;;;;;0.73;0.60;;;;;;;13.80;78.95;101655.75;4908288;29;20462;-82
2022/08/31 04:59:55;;;;;;;3.15;0.55;;;;;;;13.80;79.13;101654.00;4922457;29;20123;-82
2022/08/31 05:02:22;;;;;;;1.02;0.55;;;;;;;13.82;78.84;101651.34;4922695;29;20067;-82
2022/08/31 05:04:48;;;;;;;4.72;0.50;;;;;;;13.81;78.83;101655.75;4891450;29;20052;-82
2022/08/31 05:07:15;;;;;;;0.68;0.60;;;;;;;13.78;79.23;101657.50;4923872;29;20044;-81
2022/08/31 05:09:41;;;;;;;1.42;0.80;;;;;;;13.81;78.95;101658.38;4921566;29;20064;-82
2022/08/31 05:12:09;;;;;;;1.33;0.75;;;;;;;13.85;78.81;101657.47;4892621;29;20050;-82
2022/08/31 05:14:40;;;;;;;0.70;0.60;;;;;;;13.87;78.93;101652.19;4924723;29;20487;-82
2022/08/31 05:17:08;;;;;;;0.60;0.50;;;;;;;13.95;78.65;101665.31;4913860;29;20044;-82
2022/08/31 05:19:38;;;;;;;1.00;0.95;;;;;;;14.02;78.38;101670.50;4897420;29;20064;-83
2022/08/31 05:22:05;;;;;;;1.55;1.25;;;;;;;14.09;78.09;101667.84;4912608;29;20642;-83
2022/08/31 05:24:36;;;;;;;3.72;1.05;;;;;;;14.10;77.63;101666.97;4912964;29;20059;-84
2022/08/31 05:27:03;;;;;;;2.15;0.90;;;;;;;14.11;77.91;101666.94;4908775;29;20044;-83
2022/08/31 05:29:31;;;;;;;0.50;0.50;;;;;;;14.17;77.74;101673.91;4897416;29;20079;-83
2022/08/31 05:31:58;;;;;;;0.88;0.60;;;;;;;14.17;77.45;101672.19;4891700;29;20051;-82
2022/08/31 05:34:26;;;;;;;1.65;0.40;;;;;;;14.18;77.56;101671.31;4924659;29;20048;-82
2022/08/31 05:36:56;;;;;;;4.70;0.80;;;;;;;14.21;77.71;101675.66;4913729;29;20059;-83
2022/08/31 05:39:24;;;;;;;4.10;0.73;;;;;;;14.20;77.46;101676.56;4924206;29;20116;-82
2022/08/31 05:41:53;;;;;;;1.13;1.02;;;;;;;14.18;77.70;101680.94;4908189;29;20066;-83
2022/08/31 05:44:19;;;;;;;2.65;0.88;;;;;;;14.16;78.00;101674.84;4903412;29;20464;-82
2022/08/31 05:46:47;;;;;;;0.80;0.70;;;;;;;14.17;78.02;101677.44;4891663;29;20111;-84
2022/08/31 05:49:13;;;;;;;1.35;1.00;;;;;;;14.22;78.16;101687.94;4913346;29;20052;-82
2022/08/31 05:51:40;;;;;;;2.83;0.95;;;;;;;14.22;78.39;101682.66;4904030;29;20519;-82
2022/08/31 05:54:14;;;;;;;0.93;0.90;;;;;;;14.25;78.24;101687.03;4912567;29;20896;-83
2022/08/31 05:56:49;;;;;;;3.55;0.80;;;;;;;14.22;78.54;101688.81;4902087;29;20052;-83
2022/08/31 05:59:16;;;;;;;0.70;0.68;;;;;;;14.20;78.46;101693.22;4927235;29;20075;-82
2022/08/31 06:01:42;;;;;;;3.60;1.15;;;;;;;14.23;78.88;101685.28;4936773;29;20492;-83
2022/08/31 06:04:10;;;;;;;2.53;0.95;;;;;;;14.30;78.73;101686.13;4916299;29;20051;-83
2022/08/31 06:06:38;;;;;;;2.05;0.68;;;;;;;14.36;78.50;101696.59;4919668;29;20108;-83
2022/08/31 06:09:07;;;;;;;2.15;0.70;;;;;;;14.40;78.33;101700.09;4928982;29;20792;-82
2022/08/31 06:11:37;;;;;;;2.60;0.60;;;;;;;14.38;78.37;101702.75;4934903;29;20104;-82
2022/08/31 06:14:06;;;;;;;2.40;0.90;;;;;;;14.37;78.47;101700.13;4941010;29;20043;-84
2022/08/31 06:16:38;;;;;;;0.60;0.60;;;;;;;14.42;78.44;101705.34;4934418;29;20107;-83
2022/08/31 06:19:07;;;;;;;1.30;0.65;;;;;;;14.47;78.40;101700.91;4923816;29;20058;-83
2022/08/31 06:21:41;;;;;;;4.03;0.90;;;;;;;14.48;78.22;101706.16;4931917;29;20419;-83
2022/08/31 06:24:09;;;;;;;0.55;0.55;;;;;;;14.49;78.36;101707.03;4903614;29;20048;-82
2022/08/31 06:26:38;;;;;;;3.15;0.70;;;;;;;14.51;78.16;101713.16;4904929;29;20165;-81
2022/08/31 06:29:08;;;;;;;9.63;1.85;;;;;;;14.56;78.25;101719.25;4917212;29;20112;-82
2022/08/31 06:31:45;;;;;;;1.77;0.82;;;;;;;14.67;78.01;101716.59;4915417;29;20040;-83
2022/08/31 06:34:14;;;;;;;2.42;0.70;;;;;;;14.80;77.59;101714.72;4916405;29;20056;-82
2022/08/31 06:36:42;;;;;;;2.65;1.25;;;;;;;14.96;76.61;101711.03;4912153;29;20068;-82
2022/08/31 06:39:12;;;;;;;0.95;0.50;;;;;;;15.10;76.13;101715.31;4916232;29;20028;-81
2022/08/31 06:41:40;;;;;;;1.13;0.85;;;;;;;15.29;75.38;101708.03;4915234;29;20056;-83
2022/08/31 06:44:12;;;;;;;4.93;0.90;;;;;;;15.67;74.27;101712.84;4905408;29;20052;-82
2022/08/31 06:46:41;;;;;;;4.60;0.70;;;;;;;16.23;71.85;101708.56;4917347;29;20052;-83
2022/08/31 06:49:13;;;;;;;1.90;0.90;;;;;;;16.64;69.90;101704.38;4915214;29;20052;-82
2022/08/31 06:51:40;;;;;;;1.30;0.65;;;;;;;16.86;68.88;101713.66;4903295;29;20040;-83
2022/08/31 06:54:11;;;;;;;1.95;0.93;;;;;;;17.12;67.36;101707.03;4904429;29;20044;-84
2022/08/31 06:56:40;;;;;;;1.27;0.90;;;;;;;17.28;67.19;101707.59;4911294;29;20047;-83
2022/08/31 06:59:08;;;;;;;7.57;1.40;;;;;;;17.48;66.01;101707.22;4916172;29;20036;-84
2022/08/31 07:01:39;;;;;;;6.88;1.70;;;;;;;17.76;65.10;101718.97;4915969;29;20044;-82
2022/08/31 07:04:31;;;;;;;1.52;0.80;;;;;;;17.73;64.24;101717.28;4914964;29;20071;-83
2022/08/31 07:07:01;;;;;;;3.13;0.60;;;;;;;17.52;65.22;101711.53;4915493;29;20050;-82
2022/08/31 07:09:28;;;;;;;6.07;1.00;;;;;;;17.53;64.95;101713.28;4931183;29;20487;-83
2022/08/31 07:11:54;;;;;;;1.42;0.40;;;;;;;17.53;65.01;101722.97;4917726;29;21282;-82
2022/08/31 07:14:26;;;;;;;2.25;0.75;;;;;;;17.60;64.85;101721.97;4913233;29;20095;-83
2022/08/31 07:16:56;;;;;;;5.18;0.38;;;;;;;17.83;63.77;101724.09;4911614;29;20044;-84
2022/08/31 07:19:24;;;;;;;2.83;0.75;;;;;;;18.13;62.91;101728.75;4912254;29;20686;-82
2022/08/31 07:21:55;;;;;;;5.13;1.17;;;;;;;18.31;62.38;101720.38;4914096;29;20131;-83
2022/08/31 07:24:30;;;;;;;1.35;0.60;;;;;;;18.70;61.50;101724.72;4911591;29;20563;-83
2022/08/31 07:27:01;;;;;;;1.65;0.82;;;;;;;19.21;60.22;101720.72;4927444;29;20052;-83
2022/08/31 07:29:39;;;;;;;10.10;1.15;;;;;;;19.68;57.63;101720.25;4921868;29;20129;-83
2022/08/31 07:32:21;;;;;;;1.48;0.70;;;;;;;20.12;56.75;101715.38;4914143;29;20529;-83
2022/08/31 07:34:50;;;;;;;1.48;0.50;;;;;;;20.45;54.98;101720.50;4897155;29;20079;-84
2022/08/31 07:42:48;;;;;;;0.73;0.73;;;;;;;20.66;54.54;101718.94;4925325;29;20032;-83
2022/08/31 07:45:22;;;;;;;0.63;0.60;;;;;;;20.62;54.20;101717.31;4896760;29;20055;-83
2022/08/31 07:47:55;;;;;;;0.50;0.50;;;;;;;20.86;53.51;101716.50;4914566;29;20095;-84
2022/08/31 07:50:22;;;;;;;1.80;0.80;;;;;;;21.10;53.03;101725.44;4928710;29;20040;-83
2022/08/31 07:52:54;;;;;;;1.33;1.13;;;;;;;21.32;52.03;101722.84;4900772;29;20051;-84
2022/08/31 07:55:24;;;;;;;7.28;1.30;;;;;;;21.85;51.14;101721.75;4912727;29;20050;-84
2022/08/31 07:57:53;;;;;;;3.90;1.02;;;;;;;21.95;50.78;101719.59;4896027;29;20049;-85
2022/08/31 08:00:29;;;;;;;1.20;0.43;;;;;;;21.81;50.56;101726.34;4900017;29;20052;-83
2022/08/31 08:03:00;;;;;;;6.47;0.88;;;;;;;22.13;50.41;101720.66;4925419;29;20500;-83
2022/08/31 08:05:27;;;;;;;7.60;1.00;;;;;;;22.60;48.99;101722.31;4927265;29;20040;-84
2022/08/31 08:08:05;;;;;;;4.35;0.70;;;;;;;22.68;48.54;101727.31;4916689;29;20055;-85
2022/08/31 08:10:33;;;;;;;4.18;1.58;;;;;;;22.30;49.08;101725.28;4903419;29;20044;-83
2022/08/31 08:13:02;;;;;;;1.98;0.98;;;;;;;21.68;50.35;101732.19;4918063;29;20565;-84
2022/08/31 08:15:31;;;;;;;2.88;0.80;;;;;;;21.28;51.49;101735.41;4897451;29;20372;-83
2022/08/31 08:17:59;;;;;;;4.30;1.00;;;;;;;20.85;52.84;101736.94;4911235;29;20052;-82
2022/08/31 08:20:32;;;;;;;4.85;1.40;;;;;;;21.15;52.47;101744.78;4918508;29;20726;-83
2022/08/31 08:23:06;;;;;;;2.67;0.63;;;;;;;21.30;51.69;101749.53;4902926;29;20130;-82
2022/08/31 08:25:36;;;;;;;4.05;0.93;;;;;;;21.37;51.87;101743.97;4912738;29;20051;-85
2022/08/31 08:28:15;;;;;;;1.90;0.68;;;;;;;21.00;52.21;101743.50;4913302;29;20052;-83
2022/08/31 08:30:45;;;;;;;1.65;0.80;;;;;;;20.49;53.82;101750.53;4904184;29;20573;-83
2022/08/31 08:33:18;;;;;;;1.42;0.63;;;;;;;20.16;54.90;101751.56;4920997;29;20059;-83
2022/08/31 08:35:47;;;;;;;0.93;0.40;;;;;;;20.15;55.05;101751.63;4893192;29;20058;-82
2022/08/31 08:38:18;;;;;;;3.40;0.73;;;;;;;20.19;54.93;101753.25;4892355;29;20080;-84
2022/08/31 08:40:46;;;;;;;2.65;0.73;;;;;;;20.46;54.06;101751.50;4916621;29;20818;-84
2022/08/31 08:43:20;;;;;;;2.90;0.60;;;;;;;21.21;52.11;101738.34;4919847;29;20055;-84
2022/08/31 08:45:55;;;;;;;1.02;0.55;;;;;;;22.69;48.35;101743.25;4921296;29;20044;-84
2022/08/31 08:48:30;;;;;;;4.00;0.80;;;;;;;23.65;46.21;101747.06;4941897;29;20058;-83
2022/08/31 08:50:56;;;;;;;2.58;0.63;;;;;;;24.07;45.01;101747.81;4935894;29;20079;-83
2022/08/31 08:53:28;;;;;;;2.58;0.77;;;;;;;23.66;44.21;101751.44;4931605;29;20063;-83
2022/08/31 08:55:55;;;;;;;0.70;0.55;;;;;;;23.25;45.99;101749.75;4909547;29;20079;-83
2022/08/31 08:58:24;;;;;;;3.92;0.70;;;;;;;23.48;45.44;101747.84;4923500;29;20048;-83
2022/08/31 09:01:02;;;;;;;1.50;0.60;;;;;;;23.74;44.60;101754.66;4919214;29;20504;-83
2022/08/31 09:03:43;;;;;;;3.22;1.35;;;;;;;25.05;41.65;101735.75;4917447;29;20420;-85
2022/08/31 09:06:58;;;;;;;3.25;0.63;;;;;;;25.35;40.52;101738.63;4914790;29;20151;-85
2022/08/31 09:09:42;;;;;;;0.60;0.50;;;;;;;25.02;40.45;101741.28;4858373;29;20052;-84
2022/08/31 09:12:43;;;;;;;4.00;0.50;;;;;;;25.10;40.65;101744.44;4874013;29;20061;-84
2022/08/31 09:15:36;;;;;;;2.88;1.10;;;;;;;24.85;40.26;101739.47;4880111;29;20551;-85
2022/08/31 09:18:43;;;;;;;2.78;0.60;;;;;;;24.29;41.20;101752.97;4886192;29;20060;-83
2022/08/31 09:21:33;;;;;;;1.58;0.63;;;;;;;24.64;40.84;101753.03;4912537;29;20055;-84
2022/08/31 09:24:26;;;;;;;2.38;0.50;;;;;;;24.68;39.66;101749.25;4900967;29;20380;-85
2022/08/31 09:26:59;;;;;;;2.65;0.98;;;;;;;24.75;39.88;101745.31;4919282;29;20044;-84
2022/08/31 09:29:30;;;;;;;3.60;0.30;;;;;;;24.82;37.90;101745.00;4914998;29;20492;-84
2022/08/31 09:32:08;;;;;;;2.63;0.57;;;;;;;25.04;37.97;101740.22;4916225;29;20058;-85
2022/08/31 09:34:40;;;;;;;0.52;0.50;;;;;;;25.74;37.11;101737.38;4924947;29;20044;-84
2022/08/31 09:37:32;;;;;;;1.48;0.90;;;;;;;26.40;35.92;101731.91;4914668;29;20068;-84
2022/08/31 09:40:20;;;;;;;0.85;0.63;;;;;;;27.16;34.51;101730.09;4914034;29;20582;-85
2022/08/31 09:43:04;;;;;;;9.18;1.50;;;;;;;27.38;33.71;101738.56;4917294;29;20059;-85
2022/08/31 09:45:34;;;;;;;3.35;0.82;;;;;;;28.08;32.85;101739.50;4918679;29;20484;-83
2022/08/31 09:48:03;;;;;;;2.38;0.88;;;;;;;28.53;31.97;101734.69;4912404;29;20048;-85
2022/08/31 09:50:43;;;;;;;0.90;0.43;;;;;;;28.49;30.68;101741.25;4906748;29;20753;-86
2022/08/31 09:56:25;;;;;;;2.97;1.42;;;;;;;28.54;31.28;101733.72;4927522;29;20036;-84
2022/08/31 09:59:03;;;;;;;0.88;0.55;;;;;;;28.96;30.00;101725.50;4914626;29;20048;-86
2022/08/31 10:01:49;;;;;;;1.45;0.47;;;;;;;29.20;28.64;101727.44;4918606;29;20064;-86
2022/08/31 10:04:26;;;;;;;2.78;0.70;;;;;;;29.64;27.63;101727.94;4931920;29;20151;-85
2022/08/31 10:07:50;;;;;;;3.13;0.82;;;;;;;29.57;27.70;101727.53;4913566;29;20049;-85
2022/08/31 10:10:25;;;;;;;2.17;0.47;;;;;;;29.24;29.14;101728.94;4931401;29;20125;-85
2022/08/31 10:13:33;;;;;;;1.13;0.47;;;;;;;28.76;30.00;101735.00;4915512;29;20043;-84
2022/08/31 10:16:15;;;;;;;0.93;0.60;;;;;;;28.56;29.47;101733.63;4915990;29;20104;-85
2022/08/31 10:19:03;;;;;;;1.45;0.75;;;;;;;28.91;28.86;101730.34;4895818;29;20129;-85
2022/08/31 10:21:56;;;;;;;2.30;0.73;;;;;;;29.33;28.02;101713.97;4917254;29;20420;-84
2022/08/31 10:24:49;;;;;;;5.10;1.00;;;;;;;30.32;26.72;101721.06;4904253;29;20040;-86
2022/08/31 10:27:37;;;;;;;1.38;0.35;;;;;;;30.82;26.51;101718.19;4901626;29;20388;-85
2022/08/31 10:30:48;;;;;;;2.40;0.60;;;;;;;31.82;25.37;101714.75;4920054;29;20052;-86
2022/08/31 10:35:01;;;;;;;4.10;1.10;;;;;;;31.82;25.22;101711.16;4935851;29;20048;-85
2022/08/31 10:36:19;;;;;;;3.45;0.82;;;;;;;31.55;25.13;101706.16;4934365;29;20044;-86
2022/08/31 10:38:53;;;;;;;2.63;0.63;;;;;;;30.65;26.28;101708.69;4908438;29;20036;-87
2022/08/31 10:41:27;;;;;;;0.50;0.50;;;;;;;29.60;27.88;101719.19;4950442;28;20044;-86
2022/08/31 10:44:22;;;;;;;3.40;0.45;;;;;;;29.32;27.86;101715.81;4919299;29;20044;-86
2022/08/31 10:46:57;;;;;;;1.75;0.60;;;;;;;29.68;28.02;101711.38;4927995;29;20493;-85
2022/08/31 10:49:26;;;;;;;1.83;0.80;;;;;;;30.17;27.95;101708.75;4914339;29;20138;-85
2022/08/31 10:52:24;;;;;;;6.10;1.00;;;;;;;30.32;26.49;101706.72;4922303;29;20693;-84
2022/08/31 10:55:29;;;;;;;3.28;0.50;;;;;;;30.29;25.97;101709.66;4901230;29;20102;-85
2022/08/31 10:58:15;;;;;;;1.55;0.50;;;;;;;30.41;25.93;101703.31;4929357;29;20116;-86
2022/08/31 11:01:17;;;;;;;2.00;0.77;;;;;;;30.06;28.13;101706.00;4919004;29;20047;-85
2022/08/31 11:04:41;;;;;;;1.23;0.50;;;;;;;30.50;28.17;101702.63;4894677;29;20060;-86
2022/08/31 11:07:30;;;;;;;1.67;0.60;;;;;;;31.38;26.21;101699.41;4919101;29;20080;-86
2022/08/31 11:10:35;;;;;;;6.25;0.70;;;;;;;32.23;23.68;101700.56;4933785;29;20125;-86
2022/08/31 11:13:08;;;;;;;1.00;0.90;;;;;;;33.22;22.42;101692.03;4933351;29;20139;-85
2022/08/31 11:15:53;;;;;;;1.65;0.68;;;;;;;33.67;21.56;101694.34;4931275;29;20064;-85
2022/08/31 11:19:06;;;;;;;2.45;0.70;;;;;;;34.40;20.80;101682.25;4930859;29;20059;-85
2022/08/31 11:22:33;;;;;;;1.00;0.43;;;;;;;34.22;21.07;101685.66;4918401;29;20040;-84
2022/08/31 11:26:16;;;;;;;1.27;0.90;;;;;;;34.20;20.56;101682.25;4925258;29;20052;-87
2022/08/31 11:28:57;;;;;;;0.70;0.30;;;;;;;33.94;21.43;101684.69;4911102;29;20048;-86
2022/08/31 11:31:29;;;;;;;3.30;0.47;;;;;;;34.05;20.24;101678.25;4922698;29;20059;-86
2022/08/31 11:34:15;;;;;;;3.90;0.60;;;;;;;34.05;20.70;101678.25;4903487;29;20048;-86
2022/08/31 11:36:59;;;;;;;1.27;0.40;;;;;;;34.04;20.83;101668.38;4921521;29;20047;-87
2022/08/31 11:39:36;;;;;;;0.57;0.32;;;;;;;34.41;20.55;101673.09;4921212;29;20150;-86
2022/08/31 11:42:11;;;;;;;1.38;0.45;;;;;;;33.96;21.18;101667.25;4934098;29;20064;-86
2022/08/31 11:44:45;;;;;;;2.58;0.52;;;;;;;33.88;21.58;101668.97;4908235;29;20058;-87
2022/08/31 11:47:35;;;;;;;0.63;0.50;;;;;;;33.74;20.79;101662.03;4943595;29;20051;-86
2022/08/31 11:50:59;;;;;;;0.50;0.40;;;;;;;33.12;21.52;101657.59;4933734;29;20059;-86
2022/08/31 11:53:42;;;;;;;1.73;0.65;;;;;;;33.93;20.79;101647.66;4921302;29;20047;-85
2022/08/31 11:56:14;;;;;;;0.85;0.55;;;;;;;33.85;21.18;101653.81;4921432;29;20083;-86
2022/08/31 11:58:46;;;;;;;0.80;0.40;;;;;;;34.01;20.51;101642.34;4926119;29;20052;-87
2022/08/31 12:01:41;;;;;;;2.10;0.30;;;;;;;33.41;22.08;101642.44;4918148;29;20040;-87
2022/08/31 12:04:44;;;;;;;2.78;0.68;;;;;;;32.85;22.06;101644.66;4927151;29;20072;-86
2022/08/31 12:07:35;;;;;;;0.98;0.50;;;;;;;32.99;21.71;101641.56;4925769;28;20044;-86
2022/08/31 12:10:47;;;;;;;2.80;0.70;;;;;;;33.51;21.39;101637.88;4948232;28;20074;-86
2022/08/31 12:13:49;;;;;;;4.10;1.00;;;;;;;33.58;20.67;101644.44;4939381;28;20087;-86
2022/08/31 12:16:52;;;;;;;2.78;0.60;;;;;;;33.56;20.07;101637.44;4945518;28;20051;-84